createdAt,value
2019-05-01T00:00:56.247Z,18.3
2019-05-01T00:01:57.513Z,18.3
2019-05-01T00:03:00.943Z,18.3
2019-05-01T00:04:02.185Z,18.3
2019-05-01T00:05:03.608Z,18.2
2019-05-01T00:06:04.874Z,18.2
2019-05-01T00:07:06.269Z,18.2
2019-05-01T00:08:07.521Z,18.2
2019-05-01T00:09:08.754Z,18.2
2019-05-01T00:10:11.654Z,18.2
2019-05-01T00:11:12.897Z,18.2
2019-05-01T00:12:16.423Z,18.2
2019-05-01T00:13:17.674Z,18.2
2019-05-01T00:14:18.903Z,18.2
2019-05-01T00:15:20.156Z,18.1
2019-05-01T00:16:21.410Z,18.1
2019-05-01T00:17:22.681Z,18.1
2019-05-01T00:18:23.918Z,18.1
2019-05-01T00:19:27.561Z,18.1
2019-05-01T00:20:28.859Z,18.1
2019-05-01T00:21:30.115Z,18.1
2019-05-01T00:22:31.427Z,18.1
2019-05-01T00:23:32.995Z,18.1
2019-05-01T00:24:34.372Z,18.1
2019-05-01T00:25:35.600Z,18.1
2019-05-01T00:26:37.076Z,18.1
2019-05-01T00:27:38.568Z,18
2019-05-01T00:28:39.864Z,18
2019-05-01T00:29:43.521Z,18
2019-05-01T00:30:45.074Z,18
2019-05-01T00:31:46.402Z,18
2019-05-01T00:32:51.034Z,18
2019-05-01T00:33:52.318Z,18
2019-05-01T00:34:53.700Z,18
2019-05-01T00:35:55.207Z,18
2019-05-01T00:36:56.721Z,18
2019-05-01T00:37:58.024Z,18
2019-05-01T00:38:59.270Z,18
2019-05-01T00:40:00.798Z,17.9
2019-05-01T00:41:02.035Z,17.9
2019-05-01T00:42:05.609Z,17.9
2019-05-01T00:43:06.884Z,17.9
2019-05-01T00:44:08.114Z,17.9
2019-05-01T00:45:12.478Z,17.9
2019-05-01T00:46:13.748Z,17.9
2019-05-01T00:47:15.000Z,17.9
2019-05-01T00:48:16.287Z,17.9
2019-05-01T00:49:18.749Z,17.9
2019-05-01T00:50:25.952Z,17.9
2019-05-01T00:51:27.552Z,17.9
2019-05-01T00:52:28.922Z,17.9
2019-05-01T00:53:30.204Z,17.9
2019-05-01T00:54:32.400Z,17.8
2019-05-01T00:55:38.321Z,17.8
2019-05-01T00:56:39.554Z,17.8
2019-05-01T00:57:40.816Z,17.8
2019-05-01T00:58:42.090Z,17.8
2019-05-01T00:59:43.473Z,17.8
2019-05-01T01:00:44.716Z,17.8
2019-05-01T01:01:45.958Z,17.8
2019-05-01T01:02:50.087Z,17.8
2019-05-01T01:03:52.542Z,17.8
2019-05-01T01:04:53.853Z,17.8
2019-05-01T01:05:56.230Z,17.8
2019-05-01T01:06:57.815Z,17.8
2019-05-01T01:07:59.082Z,17.8
2019-05-01T01:09:00.389Z,17.8
2019-05-01T01:10:01.633Z,17.8
2019-05-01T01:11:02.895Z,17.8
2019-05-01T01:12:04.172Z,17.8
2019-05-01T01:13:06.332Z,17.8
2019-05-01T01:14:12.816Z,17.8
2019-05-01T01:15:14.058Z,17.7
2019-05-01T01:16:15.293Z,17.8
2019-05-01T01:17:16.562Z,17.7
2019-05-01T01:18:17.940Z,17.7
2019-05-01T01:19:19.214Z,17.7
2019-05-01T01:20:20.474Z,17.7
2019-05-01T01:21:21.728Z,17.7
2019-05-01T01:22:22.984Z,17.7
2019-05-01T01:23:24.220Z,17.7
2019-05-01T01:24:25.509Z,17.7
2019-05-01T01:25:26.797Z,17.7
2019-05-01T01:26:28.162Z,17.7
2019-05-01T01:27:29.402Z,17.7
2019-05-01T01:28:30.619Z,17.7
2019-05-01T01:29:32.974Z,17.7
2019-05-01T01:30:34.630Z,17.7
2019-05-01T01:31:35.868Z,17.7
2019-05-01T01:32:37.124Z,17.7
2019-05-01T01:33:38.372Z,17.7
2019-05-01T01:34:39.683Z,17.7
2019-05-01T01:35:41.180Z,17.6
2019-05-01T01:36:42.414Z,17.6
2019-05-01T01:37:43.710Z,17.6
2019-05-01T01:38:45.000Z,17.6
2019-05-01T01:39:46.291Z,17.6
2019-05-01T01:40:50.614Z,17.6
2019-05-01T01:41:55.322Z,17.6
2019-05-01T01:42:56.788Z,17.6
2019-05-01T01:43:58.038Z,17.6
2019-05-01T01:44:59.325Z,17.6
2019-05-01T01:46:02.689Z,17.6
2019-05-01T01:47:03.930Z,17.6
2019-05-01T01:48:05.170Z,17.6
2019-05-01T01:49:06.463Z,17.6
2019-05-01T01:50:07.734Z,17.6
2019-05-01T01:51:08.988Z,17.6
2019-05-01T01:52:10.276Z,17.6
2019-05-01T01:53:11.520Z,17.6
2019-05-01T01:54:12.878Z,17.6
2019-05-01T01:55:14.402Z,17.6
2019-05-01T01:56:15.670Z,17.6
2019-05-01T01:57:16.962Z,17.6
2019-05-01T01:58:18.219Z,17.6
2019-05-01T01:59:19.524Z,17.6
2019-05-01T02:00:20.831Z,17.6
2019-05-01T02:01:22.106Z,17.6
2019-05-01T02:02:23.350Z,17.6
2019-05-01T02:03:24.708Z,17.6
2019-05-01T02:04:26.031Z,17.6
2019-05-01T02:05:27.300Z,17.6
2019-05-01T02:06:28.542Z,17.6
2019-05-01T02:07:29.812Z,17.6
2019-05-01T02:08:31.397Z,17.6
2019-05-01T02:09:35.007Z,17.5
2019-05-01T02:10:42.735Z,17.5
2019-05-01T02:11:44.496Z,17.5
2019-05-01T02:12:45.751Z,17.5
2019-05-01T02:13:46.999Z,17.5
2019-05-01T02:14:48.274Z,17.5
2019-05-01T02:15:49.556Z,17.5
2019-05-01T02:16:50.789Z,17.5
2019-05-01T02:17:52.031Z,17.5
2019-05-01T02:18:53.286Z,17.5
2019-05-01T02:19:57.673Z,17.5
2019-05-01T02:20:58.960Z,17.5
2019-05-01T02:22:00.251Z,17.5
2019-05-01T02:23:01.492Z,17.5
2019-05-01T02:24:02.739Z,17.5
2019-05-01T02:25:03.988Z,17.5
2019-05-01T02:26:05.280Z,17.5
2019-05-01T02:27:06.518Z,17.5
2019-05-01T02:28:07.779Z,17.5
2019-05-01T02:29:09.033Z,17.5
2019-05-01T02:30:10.284Z,17.5
2019-05-01T02:31:26.332Z,17.5
2019-05-01T02:32:30.259Z,17.5
2019-05-01T02:33:31.515Z,17.5
2019-05-01T02:34:32.765Z,17.5
2019-05-01T02:35:34.025Z,17.5
2019-05-01T02:36:35.316Z,17.5
2019-05-01T02:37:36.568Z,17.5
2019-05-01T02:38:37.850Z,17.5
2019-05-01T02:39:41.572Z,17.5
2019-05-01T02:40:48.058Z,17.5
2019-05-01T02:41:52.154Z,17.5
2019-05-01T02:42:53.414Z,17.5
2019-05-01T02:43:54.672Z,17.5
2019-05-01T02:44:55.916Z,17.5
2019-05-01T02:45:57.156Z,17.5
2019-05-01T02:46:58.738Z,17.5
2019-05-01T02:48:00.001Z,17.5
2019-05-01T02:49:01.260Z,17.5
2019-05-01T02:50:04.453Z,17.5
2019-05-01T02:51:05.700Z,17.5
2019-05-01T02:52:06.995Z,17.5
2019-05-01T02:53:08.231Z,17.5
2019-05-01T02:54:10.674Z,17.5
2019-05-01T02:55:11.918Z,17.5
2019-05-01T02:56:13.157Z,17.5
2019-05-01T02:57:14.461Z,17.5
2019-05-01T02:58:15.731Z,17.5
2019-05-01T02:59:17.374Z,17.5
2019-05-01T03:00:18.720Z,17.5
2019-05-01T03:01:19.983Z,17.5
2019-05-01T03:02:21.283Z,17.5
2019-05-01T03:03:22.794Z,17.5
2019-05-01T03:04:24.029Z,17.5
2019-05-01T03:05:25.326Z,17.5
2019-05-01T03:06:26.589Z,17.5
2019-05-01T03:07:27.874Z,17.4
2019-05-01T03:08:29.152Z,17.5
2019-05-01T03:09:30.399Z,17.5
2019-05-01T03:10:31.656Z,17.5
2019-05-01T03:11:33.257Z,17.5
2019-05-01T03:12:34.587Z,17.4
2019-05-01T03:13:35.828Z,17.4
2019-05-01T03:14:37.081Z,17.4
2019-05-01T03:15:38.353Z,17.4
2019-05-01T03:16:39.608Z,17.4
2019-05-01T03:17:40.880Z,17.4
2019-05-01T03:18:42.155Z,17.4
2019-05-01T03:19:43.605Z,17.4
2019-05-01T03:20:44.874Z,17.4
2019-05-01T03:21:46.130Z,17.4
2019-05-01T03:22:47.409Z,17.4
2019-05-01T03:23:48.668Z,17.4
2019-05-01T03:24:49.927Z,17.4
2019-05-01T03:25:51.191Z,17.4
2019-05-01T03:26:52.464Z,17.4
2019-05-01T03:27:53.799Z,17.4
2019-05-01T03:28:55.082Z,17.4
2019-05-01T03:29:56.329Z,17.4
2019-05-01T03:30:58.647Z,17.4
2019-05-01T03:32:16.414Z,17.4
2019-05-01T03:33:20.696Z,17.4
2019-05-01T03:34:21.955Z,17.4
2019-05-01T03:35:23.231Z,17.4
2019-05-01T03:36:24.517Z,17.4
2019-05-01T03:37:26.869Z,17.4
2019-05-01T03:38:28.790Z,17.4
2019-05-01T03:39:30.053Z,17.4
2019-05-01T03:40:31.296Z,17.4
2019-05-01T03:41:35.405Z,17.4
2019-05-01T03:42:36.673Z,17.4
2019-05-01T03:43:37.995Z,17.4
2019-05-01T03:44:39.282Z,17.4
2019-05-01T03:45:40.536Z,17.4
2019-05-01T03:46:41.788Z,17.4
2019-05-01T03:47:43.089Z,17.4
2019-05-01T03:48:44.365Z,17.4
2019-05-01T03:49:45.609Z,17.4
2019-05-01T03:50:47.415Z,17.4
2019-05-01T03:51:48.815Z,17.4
2019-05-01T03:52:50.053Z,17.4
2019-05-01T03:53:51.361Z,17.4
2019-05-01T03:54:52.595Z,17.4
2019-05-01T03:55:53.842Z,17.4
2019-05-01T03:56:55.067Z,17.4
2019-05-01T03:57:56.307Z,17.3
2019-05-01T03:58:57.591Z,17.3
2019-05-01T03:59:58.835Z,17.4
2019-05-01T04:01:00.077Z,17.4
2019-05-01T04:02:01.352Z,17.4
2019-05-01T04:03:02.625Z,17.4
2019-05-01T04:04:03.934Z,17.4
2019-05-01T04:05:05.178Z,17.4
2019-05-01T04:06:07.201Z,17.4
2019-05-01T04:07:08.435Z,17.3
2019-05-01T04:08:09.663Z,17.4
2019-05-01T04:09:10.922Z,17.4
2019-05-01T04:10:12.131Z,17.3
2019-05-01T04:11:13.430Z,17.3
2019-05-01T04:12:16.789Z,17.3
2019-05-01T04:13:18.048Z,17.3
2019-05-01T04:14:19.384Z,17.3
2019-05-01T04:15:20.627Z,17.3
2019-05-01T04:16:21.876Z,17.3
2019-05-01T04:17:23.139Z,17.3
2019-05-01T04:18:24.397Z,17.3
2019-05-01T04:19:27.983Z,17.3
2019-05-01T04:20:29.346Z,17.3
2019-05-01T04:21:30.620Z,17.3
2019-05-01T04:22:34.452Z,17.3
2019-05-01T04:23:35.783Z,17.3
2019-05-01T04:24:37.068Z,17.3
2019-05-01T04:25:38.329Z,17.3
2019-05-01T04:26:39.567Z,17.3
2019-05-01T04:27:40.795Z,17.3
2019-05-01T04:28:44.746Z,17.3
2019-05-01T04:29:46.069Z,17.3
2019-05-01T04:30:47.305Z,17.3
2019-05-01T04:31:48.591Z,17.4
2019-05-01T04:32:52.374Z,17.3
2019-05-01T04:33:54.221Z,17.3
2019-05-01T04:34:55.528Z,17.3
2019-05-01T04:35:56.779Z,17.3
2019-05-01T04:36:58.019Z,17.3
2019-05-01T04:37:59.277Z,17.3
2019-05-01T04:39:00.663Z,17.3
2019-05-01T04:40:01.973Z,17.3
2019-05-01T04:41:03.391Z,17.3
2019-05-01T04:42:06.995Z,17.3
2019-05-01T04:43:08.285Z,17.3
2019-05-01T04:44:09.539Z,17.3
2019-05-01T04:45:10.867Z,17.3
2019-05-01T04:46:12.097Z,17.3
2019-05-01T04:47:16.313Z,17.3
2019-05-01T04:48:17.601Z,17.3
2019-05-01T04:49:20.105Z,17.3
2019-05-01T04:50:21.392Z,17.3
2019-05-01T04:51:22.678Z,17.3
2019-05-01T04:52:24.211Z,17.3
2019-05-01T04:53:25.473Z,17.3
2019-05-01T04:54:26.746Z,17.3
2019-05-01T04:55:28.051Z,17.3
2019-05-01T04:56:29.298Z,17.3
2019-05-01T04:57:30.562Z,17.3
2019-05-01T04:58:31.806Z,17.3
2019-05-01T04:59:35.287Z,17.4
2019-05-01T05:00:36.593Z,17.4
2019-05-01T05:01:37.834Z,17.4
2019-05-01T05:02:41.280Z,17.4
2019-05-01T05:03:45.538Z,17.4
2019-05-01T05:04:46.780Z,17.4
2019-05-01T05:05:48.073Z,17.4
2019-05-01T05:06:49.625Z,17.4
2019-05-01T05:07:50.873Z,17.4
2019-05-01T05:08:52.118Z,17.4
2019-05-01T05:09:53.370Z,17.4
2019-05-01T05:10:54.714Z,17.5
2019-05-01T05:11:56.177Z,17.4
2019-05-01T05:12:57.438Z,17.4
2019-05-01T05:13:58.671Z,17.5
2019-05-01T05:14:59.940Z,17.5
2019-05-01T05:16:01.261Z,17.5
2019-05-01T05:17:02.518Z,17.5
2019-05-01T05:18:03.744Z,17.6
2019-05-01T05:19:04.990Z,17.6
2019-05-01T05:20:06.233Z,17.6
2019-05-01T05:21:07.522Z,17.7
2019-05-01T05:22:08.773Z,17.7
2019-05-01T05:23:10.020Z,17.7
2019-05-01T05:24:11.261Z,17.7
2019-05-01T05:25:12.564Z,17.8
2019-05-01T05:26:13.850Z,17.8
2019-05-01T05:27:15.149Z,17.9
2019-05-01T05:28:16.422Z,17.9
2019-05-01T05:29:17.690Z,18
2019-05-01T05:30:18.974Z,18
2019-05-01T05:31:21.668Z,18
2019-05-01T05:32:22.940Z,18.1
2019-05-01T05:33:24.172Z,18.1
2019-05-01T05:34:25.442Z,18.1
2019-05-01T05:35:26.696Z,18.1
2019-05-01T05:36:27.984Z,18.1
2019-05-01T05:37:29.222Z,18.1
2019-05-01T05:38:30.596Z,18.1
2019-05-01T05:39:33.203Z,18.2
2019-05-01T05:40:34.466Z,18.2
2019-05-01T05:41:35.750Z,18.2
2019-05-01T05:42:37.015Z,18.2
2019-05-01T05:43:38.268Z,18.2
2019-05-01T05:44:39.520Z,18.2
2019-05-01T05:45:40.780Z,18.2
2019-05-01T05:46:42.066Z,18.2
2019-05-01T05:47:43.301Z,18.3
2019-05-01T05:48:44.548Z,18.3
2019-05-01T05:49:45.804Z,18.3
2019-05-01T05:50:47.080Z,18.4
2019-05-01T05:51:49.655Z,18.4
2019-05-01T05:52:50.888Z,18.4
2019-05-01T05:53:52.392Z,18.4
2019-05-01T05:54:53.638Z,18.5
2019-05-01T05:55:54.886Z,18.5
2019-05-01T05:56:56.195Z,18.5
2019-05-01T05:58:00.511Z,18.5
2019-05-01T05:59:01.742Z,18.6
2019-05-01T06:00:03.002Z,18.6
2019-05-01T06:01:04.250Z,18.6
2019-05-01T06:02:05.559Z,18.6
2019-05-01T06:03:06.798Z,18.7
2019-05-01T06:04:08.373Z,18.7
2019-05-01T06:05:09.595Z,18.7
2019-05-01T06:06:10.818Z,18.8
2019-05-01T06:07:12.096Z,18.9
2019-05-01T06:08:15.650Z,18.9
2019-05-01T06:09:16.966Z,18.9
2019-05-01T06:10:18.410Z,18.9
2019-05-01T06:11:24.221Z,18.8
2019-05-01T06:12:25.486Z,18.9
2019-05-01T06:13:26.752Z,18.9
2019-05-01T06:14:31.326Z,19
2019-05-01T06:15:36.517Z,19
2019-05-01T06:16:42.304Z,19
2019-05-01T06:17:59.025Z,19
2019-05-01T06:19:04.994Z,19
2019-05-01T06:20:10.406Z,19.1
2019-05-01T06:21:13.870Z,19.1
2019-05-01T06:22:15.115Z,19.1
2019-05-01T06:23:20.494Z,19.1
2019-05-01T06:24:23.241Z,19.2
2019-05-01T06:25:25.132Z,19.2
2019-05-01T06:26:26.639Z,19.2
2019-05-01T06:27:27.910Z,19.2
2019-05-01T06:28:29.619Z,19.2
2019-05-01T06:29:35.348Z,19.3
2019-05-01T06:30:41.864Z,19.3
2019-05-01T06:31:47.768Z,19.3
2019-05-01T06:32:48.998Z,19.3
2019-05-01T06:33:52.951Z,19.3
2019-05-01T06:34:58.415Z,19.4
2019-05-01T06:36:08.704Z,19.4
2019-05-01T06:37:14.018Z,19.5
2019-05-01T06:38:15.295Z,19.5
2019-05-01T06:39:19.658Z,19.6
2019-05-01T06:40:22.419Z,19.8
2019-05-01T06:41:24.390Z,19.8
2019-05-01T06:42:29.400Z,19.8
2019-05-01T06:43:30.923Z,19.9
2019-05-01T06:44:33.316Z,19.9
2019-05-01T06:45:46.797Z,19.9
2019-05-01T06:46:53.335Z,19.9
2019-05-01T06:48:03.548Z,20
2019-05-01T06:49:06.850Z,20
2019-05-01T06:50:08.455Z,20.1
2019-05-01T06:51:17.230Z,20.2
2019-05-01T06:52:19.560Z,20.3
2019-05-01T06:53:20.825Z,20.3
2019-05-01T06:54:22.392Z,20.3
2019-05-01T06:55:27.044Z,20.3
2019-05-01T06:56:31.170Z,20.3
2019-05-01T06:57:32.427Z,20.3
2019-05-01T06:58:33.682Z,20.3
2019-05-01T06:59:35.241Z,20.3
2019-05-01T07:00:39.088Z,20.3
2019-05-01T07:01:45.013Z,20.4
2019-05-01T07:02:46.259Z,20.4
2019-05-01T07:04:02.434Z,20.5
2019-05-01T07:05:08.947Z,20.6
2019-05-01T07:06:15.832Z,20.7
2019-05-01T07:07:24.886Z,20.8
2019-05-01T07:08:29.411Z,20.9
2019-05-01T07:09:35.314Z,20.9
2019-05-01T07:10:43.452Z,21
2019-05-01T07:11:47.353Z,21
2019-05-01T07:12:55.123Z,21.1
2019-05-01T07:14:00.657Z,21.2
2019-05-01T07:15:01.900Z,21.2
2019-05-01T07:16:03.358Z,21.2
2019-05-01T07:17:08.804Z,21.3
2019-05-01T07:18:14.514Z,21.4
2019-05-01T07:19:19.725Z,21.4
2019-05-01T07:20:20.974Z,21.5
2019-05-01T07:21:22.727Z,21.5
2019-05-01T07:22:28.496Z,21.6
2019-05-01T07:23:29.775Z,21.6
2019-05-01T07:24:31.315Z,21.7
2019-05-01T07:25:39.263Z,21.7
2019-05-01T07:26:43.798Z,21.8
2019-05-01T07:27:49.037Z,21.8
2019-05-01T07:28:54.713Z,21.9
2019-05-01T07:29:55.981Z,21.9
2019-05-01T07:30:57.237Z,22
2019-05-01T07:32:01.594Z,22
2019-05-01T07:33:07.130Z,22
2019-05-01T07:34:16.500Z,22.1
2019-05-01T07:35:18.374Z,22.2
2019-05-01T07:36:19.629Z,22.2
2019-05-01T07:37:25.425Z,22.3
2019-05-01T07:38:28.539Z,22.3
2019-05-01T07:39:33.803Z,22.4
2019-05-01T07:40:35.078Z,22.4
2019-05-01T07:41:37.610Z,22.5
2019-05-01T07:42:43.640Z,22.6
2019-05-01T07:43:54.815Z,22.6
2019-05-01T07:45:03.754Z,22.5
2019-05-01T07:46:09.373Z,22.8
2019-05-01T07:47:14.605Z,22.8
2019-05-01T07:48:18.373Z,22.9
2019-05-01T07:49:22.360Z,22.9
2019-05-01T07:50:23.829Z,23
2019-05-01T07:51:37.661Z,23
2019-05-01T07:52:43.129Z,23.1
2019-05-01T07:53:48.569Z,23.1
2019-05-01T07:54:49.940Z,23.2
2019-05-01T07:55:52.624Z,23.3
2019-05-01T07:56:58.585Z,23.3
2019-05-01T07:58:04.147Z,23.4
2019-05-01T07:59:05.417Z,23.4
2019-05-01T08:00:08.488Z,23.5
2019-05-01T08:01:12.977Z,23.5
2019-05-01T08:02:20.283Z,23.6
2019-05-01T08:03:21.842Z,23.6
2019-05-01T08:05:40.720Z,23.7
2019-05-01T08:06:46.470Z,23.8
2019-05-01T08:07:47.725Z,23.8
2019-05-01T08:08:48.998Z,23.9
2019-05-01T08:09:53.992Z,23.9
2019-05-01T08:10:55.593Z,23.9
2019-05-01T08:12:00.717Z,24
2019-05-01T08:13:02.186Z,24
2019-05-01T08:14:07.414Z,24
2019-05-01T08:15:12.747Z,24.1
2019-05-01T08:16:14.032Z,24.1
2019-05-01T08:17:17.925Z,24.1
2019-05-01T08:18:23.978Z,24.2
2019-05-01T08:19:28.785Z,24.2
2019-05-01T08:20:31.589Z,24.2
2019-05-01T08:21:35.256Z,24.3
2019-05-01T08:22:37.020Z,24.3
2019-05-01T08:23:42.557Z,24.3
2019-05-01T08:24:48.863Z,24.4
2019-05-01T08:25:50.201Z,24.4
2019-05-01T08:26:51.918Z,24.4
2019-05-01T08:27:56.129Z,24.5
2019-05-01T08:29:02.907Z,24.5
2019-05-01T08:30:12.684Z,24.5
2019-05-01T08:31:18.236Z,24.6
2019-05-01T08:32:23.889Z,24.6
2019-05-01T08:33:25.454Z,24.6
2019-05-01T08:34:28.313Z,24.7
2019-05-01T08:35:31.670Z,24.7
2019-05-01T08:36:47.147Z,24.7
2019-05-01T08:37:53.700Z,24.8
2019-05-01T08:38:59.423Z,24.9
2019-05-01T08:40:00.697Z,24.9
2019-05-01T08:41:01.967Z,24.9
2019-05-01T08:42:06.929Z,25
2019-05-01T08:43:08.988Z,25
2019-05-01T08:44:10.264Z,25.1
2019-05-01T08:45:11.778Z,25.1
2019-05-01T08:46:16.416Z,25.1
2019-05-01T08:47:25.709Z,25.1
2019-05-01T08:48:30.680Z,25.2
2019-05-01T08:49:36.644Z,25.2
2019-05-01T08:50:37.897Z,25.2
2019-05-01T08:51:39.151Z,25.2
2019-05-01T08:52:42.599Z,25.2
2019-05-01T08:53:48.592Z,25.2
2019-05-01T08:54:54.861Z,25.2
2019-05-01T08:55:56.279Z,25.3
2019-05-01T08:56:58.280Z,25.3
2019-05-01T08:58:00.639Z,25.3
2019-05-01T08:59:02.340Z,25.2
2019-05-01T09:00:03.597Z,25.2
2019-05-01T09:01:04.991Z,25.1
2019-05-01T09:02:09.223Z,25.2
2019-05-01T09:03:13.468Z,25.1
2019-05-01T09:04:19.690Z,25.2
2019-05-01T09:05:28.667Z,25.2
2019-05-01T09:06:36.480Z,25.2
2019-05-01T09:07:44.677Z,25.2
2019-05-01T09:08:48.481Z,25.2
2019-05-01T09:09:49.775Z,25.2
2019-05-01T09:10:54.607Z,25.3
2019-05-01T09:12:01.198Z,25.3
2019-05-01T09:13:05.208Z,25.3
2019-05-01T09:14:09.226Z,25.3
2019-05-01T09:15:12.502Z,25.3
2019-05-01T09:16:19.087Z,25.4
2019-05-01T09:17:24.208Z,25.4
2019-05-01T09:18:25.462Z,25.4
2019-05-01T09:19:26.743Z,25.4
2019-05-01T09:20:28.062Z,25.4
2019-05-01T09:21:33.018Z,25.4
2019-05-01T09:22:38.750Z,25.5
2019-05-01T09:23:46.051Z,25.5
2019-05-01T09:25:00.210Z,25.5
2019-05-01T09:26:06.264Z,25.5
2019-05-01T09:27:18.408Z,25.5
2019-05-01T09:28:25.376Z,25.5
2019-05-01T09:29:26.637Z,25.5
2019-05-01T09:30:28.760Z,25.5
2019-05-01T09:31:36.145Z,25.5
2019-05-01T09:32:45.469Z,25.6
2019-05-01T09:33:55.276Z,25.6
2019-05-01T09:34:58.459Z,25.6
2019-05-01T09:35:59.758Z,25.6
2019-05-01T09:37:04.371Z,25.6
2019-05-01T09:38:05.644Z,25.6
2019-05-01T09:39:08.190Z,25.6
2019-05-01T09:40:10.307Z,25.7
2019-05-01T09:41:15.132Z,25.7
2019-05-01T09:42:23.575Z,25.7
2019-05-01T09:43:26.154Z,25.7
2019-05-01T09:44:31.848Z,25.7
2019-05-01T09:45:35.435Z,25.7
2019-05-01T09:46:39.358Z,25.7
2019-05-01T09:47:40.687Z,25.7
2019-05-01T09:48:42.208Z,25.7
2019-05-01T09:49:48.645Z,25.8
2019-05-01T09:50:56.180Z,25.8
2019-05-01T09:52:01.592Z,25.8
2019-05-01T09:53:05.210Z,25.8
2019-05-01T09:54:09.730Z,25.8
2019-05-01T09:55:11.720Z,25.8
2019-05-01T09:56:12.946Z,25.8
2019-05-01T09:57:16.408Z,25.8
2019-05-01T09:58:17.708Z,25.8
2019-05-01T09:59:19.243Z,25.8
2019-05-01T10:00:20.672Z,25.8
2019-05-01T10:01:24.036Z,25.8
2019-05-01T10:02:33.719Z,25.8
2019-05-01T10:03:44.836Z,25.8
2019-05-01T10:04:50.269Z,25.8
2019-05-01T10:05:52.935Z,25.8
2019-05-01T10:06:54.977Z,25.8
2019-05-01T10:08:00.020Z,25.8
2019-05-01T10:09:06.221Z,25.8
2019-05-01T10:10:07.518Z,25.8
2019-05-01T10:11:11.005Z,25.8
2019-05-01T10:12:13.162Z,25.8
2019-05-01T10:13:22.306Z,25.7
2019-05-01T10:14:25.528Z,25.8
2019-05-01T10:15:26.807Z,25.7
2019-05-01T10:16:31.908Z,25.7
2019-05-01T10:17:35.444Z,25.8
2019-05-01T10:18:36.794Z,25.8
2019-05-01T10:19:38.348Z,25.8
2019-05-01T10:20:39.634Z,25.8
2019-05-01T10:21:45.502Z,25.7
2019-05-01T10:22:46.747Z,25.7
2019-05-01T10:23:51.609Z,25.8
2019-05-01T10:24:54.539Z,25.7
2019-05-01T10:25:55.804Z,25.8
2019-05-01T10:27:01.509Z,25.7
2019-05-01T10:28:12.067Z,25.7
2019-05-01T10:29:21.328Z,25.7
2019-05-01T10:30:26.618Z,25.7
2019-05-01T10:31:30.160Z,25.8
2019-05-01T10:32:31.744Z,25.8
2019-05-01T10:33:33.815Z,25.8
2019-05-01T10:34:38.604Z,25.8
2019-05-01T10:35:44.616Z,25.8
2019-05-01T10:36:49.733Z,25.8
2019-05-01T10:37:55.529Z,25.8
2019-05-01T10:38:59.622Z,25.8
2019-05-01T10:40:00.936Z,25.8
2019-05-01T10:41:04.128Z,25.8
2019-05-01T10:42:10.179Z,25.8
2019-05-01T10:43:11.747Z,25.8
2019-05-01T10:44:13.017Z,25.8
2019-05-01T10:45:16.460Z,25.8
2019-05-01T10:46:17.990Z,25.8
2019-05-01T10:47:19.241Z,25.8
2019-05-01T10:48:21.724Z,25.8
2019-05-01T10:49:25.650Z,25.8
2019-05-01T10:50:28.964Z,25.8
2019-05-01T10:51:30.524Z,25.8
2019-05-01T10:52:31.789Z,25.8
2019-05-01T10:53:35.795Z,25.8
2019-05-01T10:54:37.725Z,25.8
2019-05-01T10:55:39.517Z,25.8
2019-05-01T10:56:45.361Z,25.8
2019-05-01T10:57:48.941Z,25.8
2019-05-01T10:58:50.388Z,25.8
2019-05-01T10:59:51.630Z,25.8
2019-05-01T11:00:58.326Z,25.8
2019-05-01T11:02:07.185Z,25.8
2019-05-01T11:03:08.455Z,25.8
2019-05-01T11:04:17.569Z,25.8
2019-05-01T11:05:22.815Z,25.8
2019-05-01T11:06:24.571Z,25.8
2019-05-01T11:07:27.920Z,25.8
2019-05-01T11:08:29.174Z,25.7
2019-05-01T11:09:34.170Z,25.7
2019-05-01T11:10:35.783Z,25.8
2019-05-01T11:11:39.644Z,25.7
2019-05-01T11:12:41.013Z,25.8
2019-05-01T11:13:42.591Z,25.7
2019-05-01T11:14:45.172Z,25.8
2019-05-01T11:15:48.790Z,25.7
2019-05-01T11:16:52.709Z,25.7
2019-05-01T11:17:58.980Z,25.7
2019-05-01T11:19:00.301Z,25.7
2019-05-01T11:20:01.560Z,25.7
2019-05-01T11:21:04.052Z,25.7
2019-05-01T11:22:05.362Z,25.7
2019-05-01T11:23:08.885Z,25.7
2019-05-01T11:24:10.148Z,25.7
2019-05-01T11:25:12.678Z,25.6
2019-05-01T11:26:15.228Z,25.6
2019-05-01T11:27:16.831Z,25.6
2019-05-01T11:28:18.127Z,25.6
2019-05-01T11:29:19.733Z,25.6
2019-05-01T11:30:23.766Z,25.6
2019-05-01T11:31:27.950Z,25.6
2019-05-01T11:32:29.325Z,25.6
2019-05-01T11:33:30.632Z,25.6
2019-05-01T11:34:31.899Z,25.6
2019-05-01T11:35:33.167Z,25.5
2019-05-01T11:36:34.454Z,25.5
2019-05-01T11:37:35.769Z,25.5
2019-05-01T11:38:39.783Z,25.5
2019-05-01T11:39:43.266Z,25.5
2019-05-01T11:40:44.520Z,25.5
2019-05-01T11:41:45.818Z,25.5
2019-05-01T11:42:50.289Z,25.5
2019-05-01T11:43:54.591Z,25.5
2019-05-01T11:44:56.241Z,25.5
2019-05-01T11:45:57.531Z,25.5
2019-05-01T11:46:59.028Z,25.5
2019-05-01T11:48:00.287Z,25.5
2019-05-01T11:49:01.624Z,25.5
2019-05-01T11:50:03.043Z,25.5
2019-05-01T11:51:04.360Z,25.5
2019-05-01T11:52:05.850Z,25.5
2019-05-01T11:53:07.104Z,25.5
2019-05-01T11:54:08.635Z,25.5
2019-05-01T11:55:11.190Z,25.4
2019-05-01T11:56:12.742Z,25.4
2019-05-01T11:57:14.447Z,25.4
2019-05-01T11:58:18.346Z,25.4
2019-05-01T11:59:19.843Z,25.4
2019-05-01T12:00:21.103Z,25.4
2019-05-01T12:01:22.691Z,25.4
2019-05-01T12:02:26.696Z,25.4
2019-05-01T12:03:35.211Z,25.4
2019-05-01T12:04:36.694Z,25.4
2019-05-01T12:05:38.329Z,25.4
2019-05-01T12:06:39.592Z,25.4
2019-05-01T12:07:40.879Z,25.4
2019-05-01T12:08:43.687Z,25.4
2019-05-01T12:09:45.147Z,25.3
2019-05-01T12:10:49.640Z,25.3
2019-05-01T12:11:50.898Z,25.3
2019-05-01T12:12:52.168Z,25.3
2019-05-01T12:13:53.433Z,25.3
2019-05-01T12:14:54.717Z,25.3
2019-05-01T12:15:56.003Z,25.3
2019-05-01T12:17:02.303Z,25.3
2019-05-01T12:18:05.199Z,25.3
2019-05-01T12:19:10.933Z,25.2
2019-05-01T12:20:12.223Z,25.2
2019-05-01T12:21:16.350Z,25.2
2019-05-01T12:22:19.171Z,25.2
2019-05-01T12:23:20.611Z,25.2
2019-05-01T12:24:21.882Z,25.2
2019-05-01T12:25:23.197Z,25.2
2019-05-01T12:26:24.469Z,25.2
2019-05-01T12:27:25.950Z,25.2
2019-05-01T12:28:30.490Z,25.2
2019-05-01T12:29:32.263Z,25.2
2019-05-01T12:30:34.602Z,25.2
2019-05-01T12:31:37.153Z,25.2
2019-05-01T12:32:41.177Z,25.1
2019-05-01T12:33:42.503Z,25.1
2019-05-01T12:34:43.775Z,25.1
2019-05-01T12:35:46.305Z,25.1
2019-05-01T12:36:47.763Z,25.1
2019-05-01T12:37:51.408Z,25.1
2019-05-01T12:38:52.675Z,25.1
2019-05-01T12:39:53.955Z,25.1
2019-05-01T12:40:55.257Z,25.1
2019-05-01T12:41:56.515Z,25.1
2019-05-01T12:42:57.769Z,25.1
2019-05-01T12:44:04.505Z,25.1
2019-05-01T12:45:08.831Z,25.1
2019-05-01T12:46:10.175Z,25
2019-05-01T12:47:11.434Z,25.1
2019-05-01T12:48:12.682Z,25
2019-05-01T12:49:15.799Z,25
2019-05-01T12:50:17.563Z,25
2019-05-01T12:51:18.911Z,25
2019-05-01T12:52:20.197Z,25
2019-05-01T12:53:23.219Z,25
2019-05-01T12:54:25.247Z,25
2019-05-01T12:55:26.632Z,25
2019-05-01T12:56:36.511Z,25
2019-05-01T12:57:38.009Z,25
2019-05-01T12:58:44.191Z,25
2019-05-01T12:59:47.722Z,25
2019-05-01T13:00:53.668Z,24.8
2019-05-01T13:01:57.498Z,25
2019-05-01T13:02:59.333Z,25
2019-05-01T13:04:06.635Z,24.9
2019-05-01T13:05:08.446Z,24.9
2019-05-01T13:06:09.708Z,24.9
2019-05-01T13:07:14.243Z,24.9
2019-05-01T13:08:15.719Z,24.9
2019-05-01T13:09:34.179Z,24.9
2019-05-01T13:10:36.881Z,24.9
2019-05-01T13:11:40.364Z,24.9
2019-05-01T13:12:41.993Z,24.9
2019-05-01T13:13:43.250Z,24.9
2019-05-01T13:14:44.626Z,24.9
2019-05-01T13:15:46.912Z,24.9
2019-05-01T13:16:48.170Z,24.9
2019-05-01T13:17:50.101Z,24.9
2019-05-01T13:18:51.377Z,24.9
2019-05-01T13:19:52.685Z,24.9
2019-05-01T13:20:56.008Z,24.9
2019-05-01T13:21:57.284Z,24.8
2019-05-01T13:22:58.582Z,24.8
2019-05-01T13:23:59.937Z,24.8
2019-05-01T13:25:01.232Z,24.8
2019-05-01T13:26:05.645Z,24.8
2019-05-01T13:27:12.069Z,24.8
2019-05-01T13:28:13.372Z,24.8
2019-05-01T13:29:16.331Z,24.8
2019-05-01T13:30:17.664Z,24.8
2019-05-01T13:31:19.475Z,24.8
2019-05-01T13:32:20.795Z,24.8
2019-05-01T13:33:22.289Z,24.8
2019-05-01T13:34:24.099Z,24.8
2019-05-01T13:35:25.361Z,24.8
2019-05-01T13:36:26.623Z,24.7
2019-05-01T13:37:30.197Z,24.7
2019-05-01T13:38:34.681Z,24.7
2019-05-01T13:39:35.978Z,24.7
2019-05-01T13:40:39.460Z,24.7
2019-05-01T13:41:40.725Z,24.7
2019-05-01T13:42:41.982Z,24.7
2019-05-01T13:43:43.297Z,24.7
2019-05-01T13:44:44.555Z,24.7
2019-05-01T13:45:45.838Z,24.7
2019-05-01T13:46:50.414Z,24.7
2019-05-01T13:47:54.187Z,24.7
2019-05-01T13:48:58.615Z,24.6
2019-05-01T13:49:59.907Z,24.7
2019-05-01T13:51:01.204Z,24.6
2019-05-01T13:52:02.490Z,24.6
2019-05-01T13:53:04.396Z,24.6
2019-05-01T13:54:09.068Z,24.6
2019-05-01T13:55:10.354Z,24.6
2019-05-01T13:56:11.618Z,24.6
2019-05-01T13:57:12.885Z,24.6
2019-05-01T13:58:14.163Z,24.6
2019-05-01T13:59:18.254Z,24.6
2019-05-01T14:00:20.998Z,24.6